sensor_id;sensor_type;location;lat;lon;timestamp;temperature;humidity
6964;DHT22;3522;50.856;7.278;2023-11-21T00:00:20;8.00;99.90
6964;DHT22;3522;50.856;7.278;2023-11-21T00:02:47;7.90;99.90
6964;DHT22;3522;50.856;7.278;2023-11-21T00:05:14;7.90;99.90
6964;DHT22;3522;50.856;7.278;2023-11-21T00:07:41;7.90;99.90
6964;DHT22;3522;50.856;7.278;2023-11-21T00:10:09;7.90;99.90
6964;DHT22;3522;50.856;7.278;2023-11-21T00:12:37;7.80;99.90
6964;DHT22;3522;50.856;7.278;2023-11-21T00:15:04;7.70;99.90
6964;DHT22;3522;50.856;7.278;2023-11-21T00:17:34;7.70;99.90
6964;DHT22;3522;50.856;7.278;2023-11-21T00:20:01;7.70;99.90
6964;DHT22;3522;50.856;7.278;2023-11-21T00:22:31;7.60;99.90
6964;DHT22;3522;50.856;7.278;2023-11-21T00:24:58;7.60;99.90
6964;DHT22;3522;50.856;7.278;2023-11-21T00:27:25;7.60;99.90
6964;DHT22;3522;50.856;7.278;2023-11-21T00:29:52;7.60;99.90
6964;DHT22;3522;50.856;7.278;2023-11-21T00:32:19;7.50;99.90
6964;DHT22;3522;50.856;7.278;2023-11-21T00:34:46;7.50;99.90
6964;DHT22;3522;50.856;7.278;2023-11-21T00:37:12;7.50;99.90
6964;DHT22;3522;50.856;7.278;2023-11-21T00:39:39;7.40;99.90
6964;DHT22;3522;50.856;7.278;2023-11-21T00:42:05;7.40;99.90
6964;DHT22;3522;50.856;7.278;2023-11-21T00:44:32;7.40;99.90
6964;DHT22;3522;50.856;7.278;2023-11-21T00:47:00;7.30;99.90
6964;DHT22;3522;50.856;7.278;2023-11-21T00:49:28;7.30;99.90
6964;DHT22;3522;50.856;7.278;2023-11-21T00:51:54;7.30;99.90
6964;DHT22;3522;50.856;7.278;2023-11-21T00:54:23;7.30;99.90
6964;DHT22;3522;50.856;7.278;2023-11-21T00:56:49;7.40;99.90
6964;DHT22;3522;50.856;7.278;2023-11-21T00:59:16;7.40;99.90
6964;DHT22;3522;50.856;7.278;2023-11-21T01:01:43;7.40;99.90
6964;DHT22;3522;50.856;7.278;2023-11-21T01:04:11;7.40;99.90
6964;DHT22;3522;50.856;7.278;2023-11-21T01:06:38;7.40;99.90
6964;DHT22;3522;50.856;7.278;2023-11-21T01:09:05;7.40;99.90
6964;DHT22;3522;50.856;7.278;2023-11-21T01:11:34;7.40;99.90
6964;DHT22;3522;50.856;7.278;2023-11-21T01:14:02;7.40;99.90
6964;DHT22;3522;50.856;7.278;2023-11-21T01:16:29;7.40;99.90
6964;DHT22;3522;50.856;7.278;2023-11-21T01:18:57;7.40;99.90
6964;DHT22;3522;50.856;7.278;2023-11-21T01:21:25;7.40;99.90
6964;DHT22;3522;50.856;7.278;2023-11-21T01:23:53;7.40;99.90
6964;DHT22;3522;50.856;7.278;2023-11-21T01:26:20;7.40;99.90
6964;DHT22;3522;50.856;7.278;2023-11-21T01:28:47;7.40;99.90
6964;DHT22;3522;50.856;7.278;2023-11-21T01:31:14;7.40;99.90
6964;DHT22;3522;50.856;7.278;2023-11-21T01:33:40;7.50;99.90
6964;DHT22;3522;50.856;7.278;2023-11-21T01:36:07;7.50;99.90
6964;DHT22;3522;50.856;7.278;2023-11-21T01:38:35;7.50;99.90
6964;DHT22;3522;50.856;7.278;2023-11-21T01:41:01;7.50;99.90
6964;DHT22;3522;50.856;7.278;2023-11-21T01:43:27;7.60;99.90
6964;DHT22;3522;50.856;7.278;2023-11-21T01:45:55;7.60;99.90
6964;DHT22;3522;50.856;7.278;2023-11-21T01:48:22;7.60;99.90
6964;DHT22;3522;50.856;7.278;2023-11-21T01:50:49;7.60;99.90
6964;DHT22;3522;50.856;7.278;2023-11-21T01:53:15;7.60;99.90
6964;DHT22;3522;50.856;7.278;2023-11-21T01:55:44;7.60;99.90
6964;DHT22;3522;50.856;7.278;2023-11-21T01:58:11;7.60;99.90
6964;DHT22;3522;50.856;7.278;2023-11-21T02:00:38;7.60;99.90
6964;DHT22;3522;50.856;7.278;2023-11-21T02:03:04;7.60;99.90
6964;DHT22;3522;50.856;7.278;2023-11-21T02:05:32;7.70;99.90
6964;DHT22;3522;50.856;7.278;2023-11-21T02:07:58;7.70;99.90
6964;DHT22;3522;50.856;7.278;2023-11-21T02:10:26;7.70;99.90
6964;DHT22;3522;50.856;7.278;2023-11-21T02:12:53;7.70;99.90
6964;DHT22;3522;50.856;7.278;2023-11-21T02:15:21;7.70;99.90
6964;DHT22;3522;50.856;7.278;2023-11-21T02:17:52;7.60;99.90
6964;DHT22;3522;50.856;7.278;2023-11-21T02:20:19;7.60;99.90
6964;DHT22;3522;50.856;7.278;2023-11-21T02:22:49;7.60;99.90
6964;DHT22;3522;50.856;7.278;2023-11-21T02:25:18;7.70;99.90
6964;DHT22;3522;50.856;7.278;2023-11-21T02:27:44;7.70;99.90
6964;DHT22;3522;50.856;7.278;2023-11-21T02:30:14;7.70;99.90
6964;DHT22;3522;50.856;7.278;2023-11-21T02:32:41;7.70;99.90
6964;DHT22;3522;50.856;7.278;2023-11-21T02:35:08;7.70;99.90
6964;DHT22;3522;50.856;7.278;2023-11-21T02:37:35;7.70;99.90
6964;DHT22;3522;50.856;7.278;2023-11-21T02:40:03;7.70;99.90
6964;DHT22;3522;50.856;7.278;2023-11-21T02:42:31;7.70;99.90
6964;DHT22;3522;50.856;7.278;2023-11-21T02:44:58;7.80;99.90
6964;DHT22;3522;50.856;7.278;2023-11-21T02:47:24;7.70;99.90
6964;DHT22;3522;50.856;7.278;2023-11-21T02:49:51;7.70;99.90
6964;DHT22;3522;50.856;7.278;2023-11-21T02:52:18;7.70;99.90
6964;DHT22;3522;50.856;7.278;2023-11-21T02:54:45;7.70;99.90
6964;DHT22;3522;50.856;7.278;2023-11-21T02:57:13;7.70;99.90
6964;DHT22;3522;50.856;7.278;2023-11-21T02:59:39;7.70;99.90
6964;DHT22;3522;50.856;7.278;2023-11-21T03:02:05;7.80;99.90
6964;DHT22;3522;50.856;7.278;2023-11-21T03:04:33;7.80;99.90
6964;DHT22;3522;50.856;7.278;2023-11-21T03:07:00;7.80;99.90
6964;DHT22;3522;50.856;7.278;2023-11-21T03:09:27;7.70;99.90
6964;DHT22;3522;50.856;7.278;2023-11-21T03:11:53;7.70;99.90
6964;DHT22;3522;50.856;7.278;2023-11-21T03:14:21;7.70;99.90
6964;DHT22;3522;50.856;7.278;2023-11-21T03:16:48;7.70;99.90
6964;DHT22;3522;50.856;7.278;2023-11-21T03:19:15;7.60;99.90
6964;DHT22;3522;50.856;7.278;2023-11-21T03:21:42;7.60;99.90
6964;DHT22;3522;50.856;7.278;2023-11-21T03:24:08;7.60;99.90
6964;DHT22;3522;50.856;7.278;2023-11-21T03:26:35;7.50;99.90
6964;DHT22;3522;50.856;7.278;2023-11-21T03:29:02;7.50;99.90
6964;DHT22;3522;50.856;7.278;2023-11-21T03:31:31;7.50;99.90
6964;DHT22;3522;50.856;7.278;2023-11-21T03:33:57;7.50;99.90
6964;DHT22;3522;50.856;7.278;2023-11-21T03:36:24;7.50;99.90
6964;DHT22;3522;50.856;7.278;2023-11-21T03:38:51;7.50;99.90
6964;DHT22;3522;50.856;7.278;2023-11-21T03:41:18;7.50;99.90
6964;DHT22;3522;50.856;7.278;2023-11-21T03:43:44;7.50;99.90
6964;DHT22;3522;50.856;7.278;2023-11-21T03:46:11;7.50;99.90
6964;DHT22;3522;50.856;7.278;2023-11-21T03:48:39;7.60;99.90
6964;DHT22;3522;50.856;7.278;2023-11-21T03:51:07;7.60;99.90
6964;DHT22;3522;50.856;7.278;2023-11-21T03:53:33;7.60;99.90
6964;DHT22;3522;50.856;7.278;2023-11-21T03:56:01;7.60;99.90
6964;DHT22;3522;50.856;7.278;2023-11-21T03:58:28;7.60;99.90
6964;DHT22;3522;50.856;7.278;2023-11-21T04:00:55;7.60;99.90
6964;DHT22;3522;50.856;7.278;2023-11-21T04:03:21;7.60;99.90
6964;DHT22;3522;50.856;7.278;2023-11-21T04:05:49;7.60;99.90
6964;DHT22;3522;50.856;7.278;2023-11-21T04:08:16;7.60;99.90
6964;DHT22;3522;50.856;7.278;2023-11-21T04:10:43;7.50;99.90
6964;DHT22;3522;50.856;7.278;2023-11-21T04:13:09;7.50;99.90
6964;DHT22;3522;50.856;7.278;2023-11-21T04:15:36;7.50;99.90
6964;DHT22;3522;50.856;7.278;2023-11-21T04:18:03;7.50;99.90
6964;DHT22;3522;50.856;7.278;2023-11-21T04:20:29;7.50;99.90
6964;DHT22;3522;50.856;7.278;2023-11-21T04:22:57;7.50;99.90
6964;DHT22;3522;50.856;7.278;2023-11-21T04:25:24;7.50;99.90
6964;DHT22;3522;50.856;7.278;2023-11-21T04:27:50;7.50;99.90
6964;DHT22;3522;50.856;7.278;2023-11-21T04:30:17;7.50;99.90
6964;DHT22;3522;50.856;7.278;2023-11-21T04:32:43;7.50;99.90
6964;DHT22;3522;50.856;7.278;2023-11-21T04:35:10;7.50;99.90
6964;DHT22;3522;50.856;7.278;2023-11-21T04:37:37;7.50;99.90
6964;DHT22;3522;50.856;7.278;2023-11-21T04:40:05;7.50;99.90
6964;DHT22;3522;50.856;7.278;2023-11-21T04:42:33;7.50;99.90
6964;DHT22;3522;50.856;7.278;2023-11-21T04:45:00;7.50;99.90
6964;DHT22;3522;50.856;7.278;2023-11-21T04:47:26;7.50;99.90
6964;DHT22;3522;50.856;7.278;2023-11-21T04:49:54;7.50;99.90
6964;DHT22;3522;50.856;7.278;2023-11-21T04:52:20;7.60;99.90
6964;DHT22;3522;50.856;7.278;2023-11-21T04:54:47;7.60;99.90
6964;DHT22;3522;50.856;7.278;2023-11-21T04:57:15;7.60;99.90
6964;DHT22;3522;50.856;7.278;2023-11-21T04:59:43;7.60;99.90
6964;DHT22;3522;50.856;7.278;2023-11-21T05:02:10;7.60;99.90
6964;DHT22;3522;50.856;7.278;2023-11-21T05:04:37;7.60;99.90
6964;DHT22;3522;50.856;7.278;2023-11-21T05:07:04;7.60;99.90
6964;DHT22;3522;50.856;7.278;2023-11-21T05:09:31;7.60;99.90
6964;DHT22;3522;50.856;7.278;2023-11-21T05:11:57;7.60;99.90
6964;DHT22;3522;50.856;7.278;2023-11-21T05:14:26;7.60;99.90
6964;DHT22;3522;50.856;7.278;2023-11-21T05:16:53;7.60;99.90
6964;DHT22;3522;50.856;7.278;2023-11-21T05:19:19;7.60;99.90
6964;DHT22;3522;50.856;7.278;2023-11-21T05:21:47;7.50;99.90
6964;DHT22;3522;50.856;7.278;2023-11-21T05:24:13;7.50;99.90
6964;DHT22;3522;50.856;7.278;2023-11-21T05:26:40;7.60;99.90
6964;DHT22;3522;50.856;7.278;2023-11-21T05:29:07;7.50;99.90
6964;DHT22;3522;50.856;7.278;2023-11-21T05:31:37;7.50;99.90
6964;DHT22;3522;50.856;7.278;2023-11-21T05:34:04;7.50;99.90
6964;DHT22;3522;50.856;7.278;2023-11-21T05:36:30;7.50;99.90
6964;DHT22;3522;50.856;7.278;2023-11-21T05:38:57;7.50;99.90
6964;DHT22;3522;50.856;7.278;2023-11-21T05:41:24;7.50;99.90
6964;DHT22;3522;50.856;7.278;2023-11-21T05:43:51;7.50;99.90
6964;DHT22;3522;50.856;7.278;2023-11-21T05:46:19;7.50;99.90
6964;DHT22;3522;50.856;7.278;2023-11-21T05:48:47;7.50;99.90
6964;DHT22;3522;50.856;7.278;2023-11-21T05:51:14;7.50;99.90
6964;DHT22;3522;50.856;7.278;2023-11-21T05:53:40;7.50;99.90
6964;DHT22;3522;50.856;7.278;2023-11-21T05:56:07;7.50;99.90
6964;DHT22;3522;50.856;7.278;2023-11-21T05:58:33;7.50;99.90
6964;DHT22;3522;50.856;7.278;2023-11-21T06:01:00;7.50;99.90
6964;DHT22;3522;50.856;7.278;2023-11-21T06:03:27;7.50;99.90
6964;DHT22;3522;50.856;7.278;2023-11-21T06:05:55;7.60;99.90
6964;DHT22;3522;50.856;7.278;2023-11-21T06:08:21;7.50;99.90
6964;DHT22;3522;50.856;7.278;2023-11-21T06:10:48;7.50;99.90
6964;DHT22;3522;50.856;7.278;2023-11-21T06:13:15;7.50;99.90
6964;DHT22;3522;50.856;7.278;2023-11-21T06:15:41;7.50;99.90
6964;DHT22;3522;50.856;7.278;2023-11-21T06:18:08;7.50;99.90
6964;DHT22;3522;50.856;7.278;2023-11-21T06:20:36;7.50;99.90
6964;DHT22;3522;50.856;7.278;2023-11-21T06:23:04;7.40;99.90
6964;DHT22;3522;50.856;7.278;2023-11-21T06:25:31;7.50;99.90
6964;DHT22;3522;50.856;7.278;2023-11-21T06:27:58;7.40;99.90
6964;DHT22;3522;50.856;7.278;2023-11-21T06:30:25;7.40;99.90
6964;DHT22;3522;50.856;7.278;2023-11-21T06:32:51;7.40;99.90
6964;DHT22;3522;50.856;7.278;2023-11-21T06:35:18;7.40;99.90
6964;DHT22;3522;50.856;7.278;2023-11-21T06:37:45;7.40;99.90
6964;DHT22;3522;50.856;7.278;2023-11-21T06:40:14;7.40;99.90
6964;DHT22;3522;50.856;7.278;2023-11-21T06:42:41;7.40;99.90
6964;DHT22;3522;50.856;7.278;2023-11-21T06:45:09;7.40;99.90
6964;DHT22;3522;50.856;7.278;2023-11-21T06:47:36;7.40;99.90
6964;DHT22;3522;50.856;7.278;2023-11-21T06:50:03;7.40;99.90
6964;DHT22;3522;50.856;7.278;2023-11-21T06:52:30;7.40;99.90
6964;DHT22;3522;50.856;7.278;2023-11-21T06:54:57;7.40;99.90
6964;DHT22;3522;50.856;7.278;2023-11-21T06:57:24;7.30;99.90
6964;DHT22;3522;50.856;7.278;2023-11-21T06:59:51;7.30;99.90
6964;DHT22;3522;50.856;7.278;2023-11-21T07:02:18;7.30;99.90
6964;DHT22;3522;50.856;7.278;2023-11-21T07:04:44;7.20;99.90
6964;DHT22;3522;50.856;7.278;2023-11-21T07:07:11;7.30;99.90
6964;DHT22;3522;50.856;7.278;2023-11-21T07:09:38;7.30;99.90
6964;DHT22;3522;50.856;7.278;2023-11-21T07:12:05;7.30;99.90
6964;DHT22;3522;50.856;7.278;2023-11-21T07:14:34;7.30;99.90
6964;DHT22;3522;50.856;7.278;2023-11-21T07:17:00;7.30;99.90
6964;DHT22;3522;50.856;7.278;2023-11-21T07:19:27;7.30;99.90
6964;DHT22;3522;50.856;7.278;2023-11-21T07:21:54;7.40;99.90
6964;DHT22;3522;50.856;7.278;2023-11-21T07:24:20;7.40;99.90
6964;DHT22;3522;50.856;7.278;2023-11-21T07:26:48;7.40;99.90
6964;DHT22;3522;50.856;7.278;2023-11-21T07:29:14;7.40;99.90
6964;DHT22;3522;50.856;7.278;2023-11-21T07:31:42;7.50;99.90
6964;DHT22;3522;50.856;7.278;2023-11-21T07:34:09;7.50;99.90
6964;DHT22;3522;50.856;7.278;2023-11-21T07:36:37;7.60;99.90
6964;DHT22;3522;50.856;7.278;2023-11-21T07:39:04;7.60;99.90
6964;DHT22;3522;50.856;7.278;2023-11-21T07:41:31;7.60;99.90
6964;DHT22;3522;50.856;7.278;2023-11-21T07:43:58;7.70;99.90
6964;DHT22;3522;50.856;7.278;2023-11-21T07:46:25;7.70;99.90
6964;DHT22;3522;50.856;7.278;2023-11-21T07:48:53;7.70;99.90
6964;DHT22;3522;50.856;7.278;2023-11-21T07:51:20;7.70;99.90
6964;DHT22;3522;50.856;7.278;2023-11-21T07:53:47;7.80;99.90
6964;DHT22;3522;50.856;7.278;2023-11-21T07:56:14;7.80;99.90
6964;DHT22;3522;50.856;7.278;2023-11-21T07:58:40;7.80;99.90
6964;DHT22;3522;50.856;7.278;2023-11-21T08:01:07;7.90;99.90
6964;DHT22;3522;50.856;7.278;2023-11-21T08:03:34;8.00;99.90
6964;DHT22;3522;50.856;7.278;2023-11-21T08:06:02;8.00;99.90
6964;DHT22;3522;50.856;7.278;2023-11-21T08:08:30;8.00;99.90
6964;DHT22;3522;50.856;7.278;2023-11-21T08:10:57;8.00;99.90
6964;DHT22;3522;50.856;7.278;2023-11-21T08:13:26;8.10;99.90
6964;DHT22;3522;50.856;7.278;2023-11-21T08:15:53;8.10;99.90
6964;DHT22;3522;50.856;7.278;2023-11-21T08:18:21;8.10;99.90
6964;DHT22;3522;50.856;7.278;2023-11-21T08:20:47;8.00;99.90
6964;DHT22;3522;50.856;7.278;2023-11-21T08:23:15;8.10;99.90
6964;DHT22;3522;50.856;7.278;2023-11-21T08:25:43;8.10;99.90
6964;DHT22;3522;50.856;7.278;2023-11-21T08:28:09;8.20;99.90
6964;DHT22;3522;50.856;7.278;2023-11-21T08:30:36;8.20;99.90
6964;DHT22;3522;50.856;7.278;2023-11-21T08:33:01;8.30;99.90
6964;DHT22;3522;50.856;7.278;2023-11-21T08:35:28;8.30;99.90
6964;DHT22;3522;50.856;7.278;2023-11-21T08:37:55;8.40;99.90
6964;DHT22;3522;50.856;7.278;2023-11-21T08:40:23;8.40;99.90
6964;DHT22;3522;50.856;7.278;2023-11-21T08:42:50;8.50;99.90
6964;DHT22;3522;50.856;7.278;2023-11-21T08:45:17;8.60;99.90
6964;DHT22;3522;50.856;7.278;2023-11-21T08:47:44;8.60;99.90
6964;DHT22;3522;50.856;7.278;2023-11-21T08:50:11;8.60;99.90
6964;DHT22;3522;50.856;7.278;2023-11-21T08:52:38;8.60;99.90
6964;DHT22;3522;50.856;7.278;2023-11-21T08:55:06;8.60;99.90
6964;DHT22;3522;50.856;7.278;2023-11-21T08:57:35;8.60;99.90
6964;DHT22;3522;50.856;7.278;2023-11-21T09:00:02;8.60;99.90
6964;DHT22;3522;50.856;7.278;2023-11-21T09:02:30;8.50;99.90
6964;DHT22;3522;50.856;7.278;2023-11-21T09:04:58;8.50;99.90
6964;DHT22;3522;50.856;7.278;2023-11-21T09:07:24;8.40;99.90
6964;DHT22;3522;50.856;7.278;2023-11-21T09:09:51;8.40;99.90
6964;DHT22;3522;50.856;7.278;2023-11-21T09:12:17;8.40;99.90
6964;DHT22;3522;50.856;7.278;2023-11-21T09:14:45;8.40;99.90
6964;DHT22;3522;50.856;7.278;2023-11-21T09:17:12;8.40;99.90
6964;DHT22;3522;50.856;7.278;2023-11-21T09:19:39;8.30;99.90
6964;DHT22;3522;50.856;7.278;2023-11-21T09:22:06;8.30;99.90
6964;DHT22;3522;50.856;7.278;2023-11-21T09:24:33;8.30;99.90
6964;DHT22;3522;50.856;7.278;2023-11-21T09:26:59;8.30;99.90
6964;DHT22;3522;50.856;7.278;2023-11-21T09:29:26;8.30;99.90
6964;DHT22;3522;50.856;7.278;2023-11-21T09:31:54;8.40;99.90
6964;DHT22;3522;50.856;7.278;2023-11-21T09:34:24;8.40;99.90
6964;DHT22;3522;50.856;7.278;2023-11-21T09:36:51;8.40;99.90
6964;DHT22;3522;50.856;7.278;2023-11-21T09:39:18;8.50;99.90
6964;DHT22;3522;50.856;7.278;2023-11-21T09:41:46;8.50;99.90
6964;DHT22;3522;50.856;7.278;2023-11-21T09:44:17;8.50;99.90
6964;DHT22;3522;50.856;7.278;2023-11-21T09:46:44;8.50;99.90
6964;DHT22;3522;50.856;7.278;2023-11-21T09:49:15;8.50;99.90
6964;DHT22;3522;50.856;7.278;2023-11-21T09:51:44;8.60;99.90
6964;DHT22;3522;50.856;7.278;2023-11-21T09:54:13;8.60;99.90
6964;DHT22;3522;50.856;7.278;2023-11-21T09:56:41;8.70;99.90
6964;DHT22;3522;50.856;7.278;2023-11-21T09:59:09;8.70;99.90
6964;DHT22;3522;50.856;7.278;2023-11-21T10:01:39;8.70;99.90
6964;DHT22;3522;50.856;7.278;2023-11-21T10:04:16;8.70;99.90
6964;DHT22;3522;50.856;7.278;2023-11-21T10:06:43;8.70;99.90
6964;DHT22;3522;50.856;7.278;2023-11-21T10:09:11;8.70;99.90
6964;DHT22;3522;50.856;7.278;2023-11-21T10:11:39;8.70;99.90
6964;DHT22;3522;50.856;7.278;2023-11-21T10:14:06;8.70;99.90
6964;DHT22;3522;50.856;7.278;2023-11-21T10:16:35;8.80;99.90
6964;DHT22;3522;50.856;7.278;2023-11-21T10:19:02;8.80;99.90
6964;DHT22;3522;50.856;7.278;2023-11-21T10:21:33;8.90;99.90
6964;DHT22;3522;50.856;7.278;2023-11-21T10:23:59;8.90;99.90
6964;DHT22;3522;50.856;7.278;2023-11-21T10:26:26;8.80;99.90
6964;DHT22;3522;50.856;7.278;2023-11-21T10:28:56;8.90;99.90
6964;DHT22;3522;50.856;7.278;2023-11-21T10:31:23;8.90;99.90
6964;DHT22;3522;50.856;7.278;2023-11-21T10:33:50;9.00;99.90
6964;DHT22;3522;50.856;7.278;2023-11-21T10:36:24;9.00;99.90
6964;DHT22;3522;50.856;7.278;2023-11-21T10:38:52;9.10;99.90
6964;DHT22;3522;50.856;7.278;2023-11-21T10:41:19;9.10;99.90
6964;DHT22;3522;50.856;7.278;2023-11-21T10:43:46;9.10;99.90
6964;DHT22;3522;50.856;7.278;2023-11-21T10:46:13;9.20;99.90
6964;DHT22;3522;50.856;7.278;2023-11-21T10:48:46;9.20;99.90
6964;DHT22;3522;50.856;7.278;2023-11-21T10:51:12;9.20;99.90
6964;DHT22;3522;50.856;7.278;2023-11-21T10:53:39;9.20;99.90
6964;DHT22;3522;50.856;7.278;2023-11-21T10:56:16;9.30;99.90
6964;DHT22;3522;50.856;7.278;2023-11-21T10:58:49;9.30;99.90
6964;DHT22;3522;50.856;7.278;2023-11-21T11:01:20;9.20;99.90
6964;DHT22;3522;50.856;7.278;2023-11-21T11:03:50;9.30;99.90
6964;DHT22;3522;50.856;7.278;2023-11-21T11:06:19;9.30;99.90
6964;DHT22;3522;50.856;7.278;2023-11-21T11:08:46;9.30;99.90
6964;DHT22;3522;50.856;7.278;2023-11-21T11:11:15;9.40;99.90
6964;DHT22;3522;50.856;7.278;2023-11-21T11:13:43;9.40;99.90
6964;DHT22;3522;50.856;7.278;2023-11-21T11:16:11;9.40;99.90
6964;DHT22;3522;50.856;7.278;2023-11-21T11:18:42;9.30;99.90
6964;DHT22;3522;50.856;7.278;2023-11-21T11:21:11;9.30;99.90
6964;DHT22;3522;50.856;7.278;2023-11-21T11:23:44;9.30;99.90
6964;DHT22;3522;50.856;7.278;2023-11-21T11:26:16;9.30;99.90
6964;DHT22;3522;50.856;7.278;2023-11-21T11:28:54;9.20;99.90
6964;DHT22;3522;50.856;7.278;2023-11-21T11:31:26;9.20;99.90
6964;DHT22;3522;50.856;7.278;2023-11-21T11:33:55;9.20;99.90
6964;DHT22;3522;50.856;7.278;2023-11-21T11:36:25;9.20;99.90
6964;DHT22;3522;50.856;7.278;2023-11-21T11:38:52;9.20;99.90
6964;DHT22;3522;50.856;7.278;2023-11-21T11:41:24;9.10;99.90
6964;DHT22;3522;50.856;7.278;2023-11-21T11:43:53;9.20;99.90
6964;DHT22;3522;50.856;7.278;2023-11-21T11:46:19;9.20;99.90
6964;DHT22;3522;50.856;7.278;2023-11-21T11:48:47;9.20;99.90
6964;DHT22;3522;50.856;7.278;2023-11-21T11:51:14;9.20;99.90
6964;DHT22;3522;50.856;7.278;2023-11-21T11:53:43;9.30;99.90
6964;DHT22;3522;50.856;7.278;2023-11-21T11:56:23;9.30;99.90
6964;DHT22;3522;50.856;7.278;2023-11-21T11:58:52;9.40;99.90
6964;DHT22;3522;50.856;7.278;2023-11-21T12:01:19;9.40;99.90
6964;DHT22;3522;50.856;7.278;2023-11-21T12:06:32;9.50;99.90
6964;DHT22;3522;50.856;7.278;2023-11-21T12:09:00;9.50;99.90
6964;DHT22;3522;50.856;7.278;2023-11-21T12:11:30;9.50;99.90
6964;DHT22;3522;50.856;7.278;2023-11-21T12:13:58;9.50;99.90
6964;DHT22;3522;50.856;7.278;2023-11-21T12:16:25;9.50;99.90
6964;DHT22;3522;50.856;7.278;2023-11-21T12:18:52;9.60;99.90
6964;DHT22;3522;50.856;7.278;2023-11-21T12:21:19;9.60;99.90
6964;DHT22;3522;50.856;7.278;2023-11-21T12:23:46;9.70;99.90
6964;DHT22;3522;50.856;7.278;2023-11-21T12:26:13;9.70;99.90
6964;DHT22;3522;50.856;7.278;2023-11-21T12:28:40;9.70;99.90
6964;DHT22;3522;50.856;7.278;2023-11-21T12:31:07;9.60;99.90
6964;DHT22;3522;50.856;7.278;2023-11-21T12:33:34;9.70;99.90
6964;DHT22;3522;50.856;7.278;2023-11-21T12:36:01;9.70;99.90
6964;DHT22;3522;50.856;7.278;2023-11-21T12:38:33;9.70;99.90
6964;DHT22;3522;50.856;7.278;2023-11-21T12:41:00;9.80;99.90
6964;DHT22;3522;50.856;7.278;2023-11-21T12:43:26;9.90;99.90
6964;DHT22;3522;50.856;7.278;2023-11-21T12:46:04;9.90;99.90
6964;DHT22;3522;50.856;7.278;2023-11-21T12:48:32;9.90;99.90
6964;DHT22;3522;50.856;7.278;2023-11-21T12:50:59;9.90;99.90
6964;DHT22;3522;50.856;7.278;2023-11-21T12:53:27;9.90;99.90
6964;DHT22;3522;50.856;7.278;2023-11-21T12:56:01;9.80;99.90
6964;DHT22;3522;50.856;7.278;2023-11-21T12:58:27;9.80;99.90
6964;DHT22;3522;50.856;7.278;2023-11-21T13:00:55;9.90;99.90
6964;DHT22;3522;50.856;7.278;2023-11-21T13:03:24;9.90;99.90
6964;DHT22;3522;50.856;7.278;2023-11-21T13:05:53;9.80;99.90
6964;DHT22;3522;50.856;7.278;2023-11-21T13:08:24;9.80;99.90
6964;DHT22;3522;50.856;7.278;2023-11-21T13:10:51;9.80;99.90
6964;DHT22;3522;50.856;7.278;2023-11-21T13:13:19;9.80;99.90
6964;DHT22;3522;50.856;7.278;2023-11-21T13:15:49;9.70;99.90
6964;DHT22;3522;50.856;7.278;2023-11-21T13:18:17;9.70;99.90
6964;DHT22;3522;50.856;7.278;2023-11-21T13:20:46;9.70;99.90
6964;DHT22;3522;50.856;7.278;2023-11-21T13:23:15;9.60;99.90
6964;DHT22;3522;50.856;7.278;2023-11-21T13:25:42;9.60;99.90
6964;DHT22;3522;50.856;7.278;2023-11-21T13:28:10;9.70;99.90
6964;DHT22;3522;50.856;7.278;2023-11-21T13:30:37;9.60;99.90
6964;DHT22;3522;50.856;7.278;2023-11-21T13:33:05;9.60;99.90
6964;DHT22;3522;50.856;7.278;2023-11-21T13:35:33;9.50;99.90
6964;DHT22;3522;50.856;7.278;2023-11-21T13:38:04;9.50;99.90
6964;DHT22;3522;50.856;7.278;2023-11-21T13:40:33;9.50;99.90
6964;DHT22;3522;50.856;7.278;2023-11-21T13:43:05;9.50;99.90
6964;DHT22;3522;50.856;7.278;2023-11-21T13:45:35;9.50;99.90
6964;DHT22;3522;50.856;7.278;2023-11-21T13:48:01;9.50;99.90
6964;DHT22;3522;50.856;7.278;2023-11-21T13:50:30;9.50;99.90
6964;DHT22;3522;50.856;7.278;2023-11-21T13:52:59;9.50;99.90
6964;DHT22;3522;50.856;7.278;2023-11-21T13:55:29;9.50;99.90
6964;DHT22;3522;50.856;7.278;2023-11-21T13:57:57;9.50;99.90
6964;DHT22;3522;50.856;7.278;2023-11-21T14:00:24;9.50;99.90
6964;DHT22;3522;50.856;7.278;2023-11-21T14:03:09;9.50;99.90
6964;DHT22;3522;50.856;7.278;2023-11-21T14:05:44;9.40;99.90
6964;DHT22;3522;50.856;7.278;2023-11-21T14:08:12;9.40;99.90
6964;DHT22;3522;50.856;7.278;2023-11-21T14:10:42;9.40;99.90
6964;DHT22;3522;50.856;7.278;2023-11-21T14:13:11;9.40;99.90
6964;DHT22;3522;50.856;7.278;2023-11-21T14:15:39;9.30;99.90
6964;DHT22;3522;50.856;7.278;2023-11-21T14:18:10;9.30;99.90
6964;DHT22;3522;50.856;7.278;2023-11-21T14:20:39;9.30;99.90
6964;DHT22;3522;50.856;7.278;2023-11-21T14:23:06;9.30;99.90
6964;DHT22;3522;50.856;7.278;2023-11-21T14:25:33;9.30;99.90
6964;DHT22;3522;50.856;7.278;2023-11-21T14:28:02;9.30;99.90
6964;DHT22;3522;50.856;7.278;2023-11-21T14:30:30;9.30;99.90
6964;DHT22;3522;50.856;7.278;2023-11-21T14:32:57;9.30;99.90
6964;DHT22;3522;50.856;7.278;2023-11-21T14:35:24;9.20;99.90
6964;DHT22;3522;50.856;7.278;2023-11-21T14:37:51;9.20;99.90
6964;DHT22;3522;50.856;7.278;2023-11-21T14:40:18;9.20;99.90
6964;DHT22;3522;50.856;7.278;2023-11-21T14:42:49;9.20;99.90
6964;DHT22;3522;50.856;7.278;2023-11-21T14:45:18;9.20;99.90
6964;DHT22;3522;50.856;7.278;2023-11-21T14:47:47;9.10;99.90
6964;DHT22;3522;50.856;7.278;2023-11-21T14:50:21;9.10;99.90
6964;DHT22;3522;50.856;7.278;2023-11-21T14:53:05;9.10;99.90
6964;DHT22;3522;50.856;7.278;2023-11-21T14:55:32;9.10;99.90
6964;DHT22;3522;50.856;7.278;2023-11-21T14:58:06;9.10;99.90
6964;DHT22;3522;50.856;7.278;2023-11-21T15:00:38;9.00;99.90
6964;DHT22;3522;50.856;7.278;2023-11-21T15:03:11;9.00;99.90
6964;DHT22;3522;50.856;7.278;2023-11-21T15:05:52;9.00;99.90
6964;DHT22;3522;50.856;7.278;2023-11-21T15:08:19;9.00;99.90
6964;DHT22;3522;50.856;7.278;2023-11-21T15:10:51;9.00;99.90
6964;DHT22;3522;50.856;7.278;2023-11-21T15:13:19;9.00;99.90
6964;DHT22;3522;50.856;7.278;2023-11-21T15:15:47;8.90;99.90
6964;DHT22;3522;50.856;7.278;2023-11-21T15:18:15;9.00;99.90
6964;DHT22;3522;50.856;7.278;2023-11-21T15:20:41;8.90;99.90
6964;DHT22;3522;50.856;7.278;2023-11-21T15:23:09;8.90;99.90
6964;DHT22;3522;50.856;7.278;2023-11-21T15:25:38;8.90;99.90
6964;DHT22;3522;50.856;7.278;2023-11-21T15:28:04;8.90;99.90
6964;DHT22;3522;50.856;7.278;2023-11-21T15:30:31;8.90;99.90
6964;DHT22;3522;50.856;7.278;2023-11-21T15:32:58;8.80;99.90
6964;DHT22;3522;50.856;7.278;2023-11-21T15:35:26;8.80;99.90
6964;DHT22;3522;50.856;7.278;2023-11-21T15:37:53;8.90;99.90
6964;DHT22;3522;50.856;7.278;2023-11-21T15:40:22;8.80;99.90
6964;DHT22;3522;50.856;7.278;2023-11-21T15:42:49;8.90;99.90
6964;DHT22;3522;50.856;7.278;2023-11-21T15:45:16;8.80;99.90
6964;DHT22;3522;50.856;7.278;2023-11-21T15:47:46;8.80;99.90
6964;DHT22;3522;50.856;7.278;2023-11-21T15:50:12;8.90;99.90
6964;DHT22;3522;50.856;7.278;2023-11-21T15:52:41;8.80;99.90
6964;DHT22;3522;50.856;7.278;2023-11-21T15:55:09;8.80;99.90
6964;DHT22;3522;50.856;7.278;2023-11-21T15:57:36;8.80;99.90
6964;DHT22;3522;50.856;7.278;2023-11-21T16:00:03;8.80;99.90
6964;DHT22;3522;50.856;7.278;2023-11-21T16:02:36;8.80;99.90
6964;DHT22;3522;50.856;7.278;2023-11-21T16:05:03;8.80;99.90
6964;DHT22;3522;50.856;7.278;2023-11-21T16:07:30;8.80;99.90
6964;DHT22;3522;50.856;7.278;2023-11-21T16:09:59;8.70;99.90
6964;DHT22;3522;50.856;7.278;2023-11-21T16:12:25;8.80;99.90
6964;DHT22;3522;50.856;7.278;2023-11-21T16:14:52;8.70;99.90
6964;DHT22;3522;50.856;7.278;2023-11-21T16:17:18;8.80;99.90
6964;DHT22;3522;50.856;7.278;2023-11-21T16:19:46;8.80;99.90
6964;DHT22;3522;50.856;7.278;2023-11-21T16:22:13;8.80;99.90